createdAt,value
2023-01-23T00:00:00.686Z,77.54
2023-01-23T00:01:04.315Z,77.56
2023-01-23T00:02:06.878Z,77.50
2023-01-23T00:03:08.729Z,77.72
2023-01-23T00:04:14.146Z,77.76
2023-01-23T00:05:15.766Z,77.59
2023-01-23T00:06:18.996Z,77.71
2023-01-23T00:07:20.496Z,77.61
2023-01-23T00:08:23.016Z,77.91
2023-01-23T00:09:25.855Z,77.72
2023-01-23T00:10:27.514Z,77.80
2023-01-23T00:11:31.882Z,77.72
2023-01-23T00:12:34.761Z,77.39
2023-01-23T00:13:37.366Z,77.43
2023-01-23T00:14:38.890Z,77.43
2023-01-23T00:15:41.471Z,77.65
2023-01-23T00:16:42.994Z,77.68
2023-01-23T00:17:46.349Z,77.69
2023-01-23T00:18:48.525Z,77.43
2023-01-23T00:19:53.900Z,77.64
2023-01-23T00:20:55.420Z,77.65
2023-01-23T00:22:00.673Z,77.39
2023-01-23T00:23:02.296Z,77.42
2023-01-23T00:24:05.450Z,77.71
2023-01-23T00:25:07.549Z,77.63
2023-01-23T00:26:12.410Z,77.64
2023-01-23T00:27:15.262Z,77.53
2023-01-23T00:28:18.112Z,77.39
2023-01-23T00:29:20.594Z,77.45
2023-01-23T00:30:22.087Z,77.53
2023-01-23T00:31:27.108Z,77.50
2023-01-23T00:32:28.727Z,77.65
2023-01-23T00:33:31.647Z,77.58
2023-01-23T00:34:33.795Z,77.41
2023-01-23T00:35:36.392Z,77.65
2023-01-23T00:36:39.748Z,77.47
2023-01-23T00:37:42.408Z,77.51
2023-01-23T00:38:44.451Z,77.53
2023-01-23T00:39:47.121Z,77.72
2023-01-23T00:40:48.860Z,77.73
2023-01-23T00:41:51.514Z,77.48
2023-01-23T00:42:53.546Z,77.62
2023-01-23T00:43:57.393Z,77.75
2023-01-23T00:44:58.926Z,77.69
2023-01-23T00:46:01.934Z,77.05
2023-01-23T00:47:03.595Z,77.47
2023-01-23T00:48:06.346Z,77.53
2023-01-23T00:49:08.199Z,77.29
2023-01-23T00:50:12.320Z,77.51
2023-01-23T00:51:14.548Z,77.46
2023-01-23T00:52:17.118Z,77.21
2023-01-23T00:53:19.326Z,77.41
2023-01-23T00:54:21.847Z,77.25
2023-01-23T00:55:23.404Z,77.50
2023-01-23T00:56:26.026Z,77.63
2023-01-23T00:57:28.080Z,77.64
2023-01-23T00:58:30.640Z,77.52
2023-01-23T00:59:34.452Z,77.34
2023-01-23T01:00:36.550Z,77.62
2023-01-23T01:01:39.365Z,77.56
2023-01-23T01:02:47.196Z,77.65
2023-01-23T01:03:50.003Z,77.64
2023-01-23T01:04:51.643Z,77.49
2023-01-23T01:05:54.219Z,77.59
2023-01-23T01:06:56.197Z,77.58
2023-01-23T01:07:59.206Z,77.88
2023-01-23T01:09:00.842Z,77.66
2023-01-23T01:10:03.716Z,77.80
2023-01-23T01:11:05.898Z,77.70
2023-01-23T01:12:08.600Z,77.66
2023-01-23T01:13:10.977Z,77.82
2023-01-23T01:14:13.658Z,77.94
2023-01-23T01:15:16.692Z,77.69
2023-01-23T01:16:19.693Z,77.67
2023-01-23T01:17:21.351Z,77.93
2023-01-23T01:18:24.221Z,77.79
2023-01-23T01:19:28.104Z,77.79
2023-01-23T01:20:31.073Z,77.77
2023-01-23T01:21:33.145Z,77.67
2023-01-23T01:22:35.637Z,77.77
2023-01-23T01:23:38.637Z,77.49
2023-01-23T01:24:42.291Z,77.62
2023-01-23T01:25:44.541Z,77.85
2023-01-23T01:26:47.039Z,77.76
2023-01-23T01:27:48.645Z,77.88
2023-01-23T01:28:51.240Z,77.82
2023-01-23T01:29:52.854Z,77.57
2023-01-23T01:30:56.786Z,77.67
2023-01-23T01:31:58.675Z,77.75
2023-01-23T01:33:01.217Z,77.65
2023-01-23T01:34:03.136Z,77.73
2023-01-23T01:35:07.060Z,77.80
2023-01-23T01:36:10.492Z,77.82
2023-01-23T01:37:13.344Z,77.72
2023-01-23T01:38:14.849Z,77.59
2023-01-23T01:39:17.384Z,77.94
2023-01-23T01:40:21.801Z,77.74
2023-01-23T01:41:24.471Z,77.66
2023-01-23T01:42:28.313Z,77.59
2023-01-23T01:43:31.761Z,77.74
2023-01-23T01:44:52.364Z,77.23
2023-01-23T01:46:17.637Z,77.86
2023-01-23T01:47:19.183Z,77.69
2023-01-23T01:48:25.500Z,77.55
2023-01-23T01:49:32.240Z,77.62
2023-01-23T01:50:35.274Z,77.49
2023-01-23T01:51:42.081Z,77.72
2023-01-23T01:52:44.409Z,77.60
2023-01-23T01:53:49.815Z,77.60
2023-01-23T01:54:57.958Z,77.57
2023-01-23T01:56:00.394Z,77.58
2023-01-23T01:57:07.592Z,77.57
2023-01-23T01:58:09.708Z,77.73
2023-01-23T01:59:13.990Z,78.02
2023-01-23T02:00:19.522Z,77.73
2023-01-23T02:01:23.553Z,77.90
2023-01-23T02:02:29.296Z,78.05
2023-01-23T02:03:31.884Z,77.92
2023-01-23T02:04:36.334Z,77.96
2023-01-23T02:05:42.584Z,77.94
2023-01-23T02:06:44.300Z,77.82
2023-01-23T02:07:54.234Z,77.88
2023-01-23T02:09:04.693Z,77.99
2023-01-23T02:10:07.735Z,78.13
2023-01-23T02:11:10.578Z,77.97
2023-01-23T02:12:13.426Z,77.89
2023-01-23T02:13:20.855Z,77.93
2023-01-23T02:14:25.607Z,77.99
2023-01-23T02:15:27.261Z,78.07
2023-01-23T02:16:40.042Z,78.01
2023-01-23T02:17:43.389Z,78.13
2023-01-23T02:18:49.821Z,77.99
2023-01-23T02:19:59.536Z,77.84
2023-01-23T02:21:06.508Z,77.91
2023-01-23T02:22:20.592Z,77.96
2023-01-23T02:23:33.630Z,77.96
2023-01-23T02:24:42.710Z,78.04
2023-01-23T02:25:54.972Z,78.10
2023-01-23T02:26:57.778Z,78.00
2023-01-23T02:27:59.461Z,78.10
2023-01-23T02:29:01.988Z,78.22
2023-01-23T02:30:06.071Z,78.10
2023-01-23T02:31:09.590Z,78.01
2023-01-23T02:32:11.751Z,78.10
2023-01-23T02:33:46.094Z,77.92
2023-01-23T02:34:48.808Z,78.14
2023-01-23T02:35:50.845Z,78.03
2023-01-23T02:36:53.359Z,78.00
2023-01-23T02:38:00.349Z,78.10
2023-01-23T02:39:07.167Z,78.03
2023-01-23T02:40:10.064Z,77.95
2023-01-23T02:41:15.452Z,78.11
2023-01-23T02:42:17.494Z,77.97
2023-01-23T02:43:24.592Z,78.14
2023-01-23T02:44:28.568Z,77.89
2023-01-23T02:45:31.452Z,77.97
2023-01-23T02:46:33.103Z,78.05
2023-01-23T02:47:36.093Z,77.94
2023-01-23T02:48:39.898Z,78.05
2023-01-23T02:49:43.100Z,77.91
2023-01-23T02:50:46.321Z,78.06
2023-01-23T02:51:49.124Z,78.04
2023-01-23T02:52:51.113Z,77.86
2023-01-23T02:53:53.935Z,77.81
2023-01-23T02:54:55.677Z,77.45
2023-01-23T02:55:58.751Z,77.88
2023-01-23T02:57:02.034Z,77.72
2023-01-23T02:58:18.532Z,77.83
2023-01-23T02:59:38.577Z,77.70
2023-01-23T03:00:43.918Z,77.75
2023-01-23T03:01:45.529Z,77.87
2023-01-23T03:02:48.902Z,78.10
2023-01-23T03:03:51.646Z,77.87
2023-01-23T03:04:54.530Z,78.06
2023-01-23T03:05:56.283Z,78.16
2023-01-23T03:06:59.135Z,78.15
2023-01-23T03:08:01.069Z,78.17
2023-01-23T03:09:10.841Z,78.18
2023-01-23T03:10:12.947Z,78.29
2023-01-23T03:11:17.052Z,78.22
2023-01-23T03:12:20.884Z,78.30
2023-01-23T03:13:22.392Z,78.36
2023-01-23T03:14:25.822Z,78.29
2023-01-23T03:15:27.733Z,78.32
2023-01-23T03:16:30.352Z,78.48
2023-01-23T03:17:33.113Z,78.58
2023-01-23T03:18:48.894Z,78.49
2023-01-23T03:19:57.596Z,78.36
2023-01-23T03:21:01.665Z,78.36
2023-01-23T03:22:04.172Z,78.43
2023-01-23T03:23:05.741Z,78.33
2023-01-23T03:24:09.860Z,78.35
2023-01-23T03:25:11.381Z,78.49
2023-01-23T03:26:13.968Z,78.45
2023-01-23T03:27:15.797Z,78.48
2023-01-23T03:28:33.846Z,78.56
2023-01-23T03:29:53.918Z,78.63
2023-01-23T03:30:56.619Z,78.54
2023-01-23T03:31:58.175Z,78.69
2023-01-23T03:33:00.696Z,78.93
2023-01-23T03:34:02.241Z,78.91
2023-01-23T03:35:05.381Z,78.70
2023-01-23T03:36:08.002Z,79.01
2023-01-23T03:37:12.524Z,78.96
2023-01-23T03:38:15.954Z,79.04
2023-01-23T03:39:36.338Z,79.14
2023-01-23T03:40:56.719Z,79.13
2023-01-23T03:41:59.248Z,79.14
2023-01-23T03:43:00.793Z,79.10
2023-01-23T03:44:04.864Z,79.14
2023-01-23T03:45:07.884Z,79.18
2023-01-23T03:46:10.831Z,79.20
2023-01-23T03:47:12.362Z,79.23
2023-01-23T03:48:14.861Z,79.20
2023-01-23T03:49:17.156Z,79.23
2023-01-23T03:50:20.256Z,79.10
2023-01-23T03:51:21.993Z,79.46
2023-01-23T03:52:24.523Z,79.39
2023-01-23T03:53:26.153Z,79.07
2023-01-23T03:54:28.687Z,79.38
2023-01-23T03:55:30.252Z,79.46
2023-01-23T03:56:32.765Z,79.16
2023-01-23T03:57:34.277Z,79.42
2023-01-23T03:58:36.787Z,79.21
2023-01-23T03:59:39.707Z,79.30
2023-01-23T04:00:42.453Z,79.30
2023-01-23T04:01:44.083Z,79.20
2023-01-23T04:02:49.691Z,79.09
2023-01-23T04:03:51.564Z,79.17
2023-01-23T04:04:55.404Z,79.14
2023-01-23T04:05:58.332Z,79.08
2023-01-23T04:07:01.228Z,79.12
2023-01-23T04:08:02.900Z,79.01
2023-01-23T04:09:05.488Z,79.01
2023-01-23T04:10:07.792Z,79.05
2023-01-23T04:11:12.063Z,79.09
2023-01-23T04:12:14.183Z,78.96
2023-01-23T04:13:17.043Z,79.07
2023-01-23T04:14:18.606Z,79.06
2023-01-23T04:15:22.501Z,79.17
2023-01-23T04:16:24.149Z,78.87
2023-01-23T04:17:26.651Z,78.95
2023-01-23T04:18:29.009Z,78.98
2023-01-23T04:19:31.809Z,79.13
2023-01-23T04:20:33.348Z,78.95
2023-01-23T04:21:35.849Z,78.92
2023-01-23T04:22:37.889Z,78.73
2023-01-23T04:23:40.439Z,79.06
2023-01-23T04:24:42.117Z,78.91
2023-01-23T04:25:44.860Z,78.95
2023-01-23T04:26:46.547Z,78.82
2023-01-23T04:27:49.029Z,78.74
2023-01-23T04:28:50.614Z,78.79
2023-01-23T04:29:53.108Z,78.73
2023-01-23T04:30:56.232Z,78.78
2023-01-23T04:31:58.865Z,78.68
2023-01-23T04:33:00.637Z,78.98
2023-01-23T04:34:03.355Z,78.72
2023-01-23T04:35:05.836Z,78.66
2023-01-23T04:36:09.081Z,78.73
2023-01-23T04:37:11.634Z,78.59
2023-01-23T04:38:13.252Z,78.70
2023-01-23T04:39:16.093Z,78.68
2023-01-23T04:40:17.905Z,78.39
2023-01-23T04:41:22.988Z,78.54
2023-01-23T04:42:24.515Z,78.41
2023-01-23T04:43:27.097Z,78.41
2023-01-23T04:44:37.805Z,78.34
2023-01-23T04:45:40.337Z,78.56
2023-01-23T04:46:43.244Z,78.23
2023-01-23T04:47:48.782Z,78.41
2023-01-23T04:48:50.311Z,78.43
2023-01-23T04:50:00.759Z,78.29
2023-01-23T04:51:03.285Z,78.35
2023-01-23T04:52:04.915Z,78.34
2023-01-23T04:53:07.718Z,78.18
2023-01-23T04:54:09.265Z,78.27
2023-01-23T04:55:11.882Z,78.17
2023-01-23T04:56:13.417Z,78.18
2023-01-23T04:57:15.956Z,78.08
2023-01-23T04:58:19.417Z,78.28
2023-01-23T04:59:21.964Z,78.19
2023-01-23T05:00:23.700Z,78.04
2023-01-23T05:01:26.261Z,78.10
2023-01-23T05:02:29.180Z,78.18
2023-01-23T05:03:32.818Z,78.14
2023-01-23T05:04:34.326Z,78.11
2023-01-23T05:05:36.867Z,78.28
2023-01-23T05:06:38.697Z,78.30
2023-01-23T05:07:41.715Z,78.26
2023-01-23T05:08:43.247Z,78.31
2023-01-23T05:09:45.748Z,78.18
2023-01-23T05:10:47.294Z,78.16
2023-01-23T05:11:50.021Z,78.06
2023-01-23T05:12:51.959Z,78.12
2023-01-23T05:13:54.492Z,78.10
2023-01-23T05:14:56.032Z,78.31
2023-01-23T05:15:58.630Z,78.47
2023-01-23T05:17:00.146Z,78.25
2023-01-23T05:18:04.088Z,78.47
2023-01-23T05:19:05.670Z,78.63
2023-01-23T05:20:09.536Z,78.57
2023-01-23T05:21:11.093Z,78.56
2023-01-23T05:22:13.724Z,78.72
2023-01-23T05:23:15.411Z,78.58
2023-01-23T05:24:18.018Z,78.68
2023-01-23T05:25:21.427Z,78.70
2023-01-23T05:26:23.946Z,78.66
2023-01-23T05:27:25.519Z,78.59
2023-01-23T05:28:28.026Z,78.76
2023-01-23T05:29:29.698Z,78.56
2023-01-23T05:30:32.477Z,78.62
2023-01-23T05:31:34.433Z,78.57
2023-01-23T05:32:36.987Z,78.56
2023-01-23T05:33:40.239Z,78.34
2023-01-23T05:34:42.696Z,78.50
2023-01-23T05:35:45.561Z,78.55
2023-01-23T05:36:47.122Z,78.45
2023-01-23T05:37:51.517Z,78.62
2023-01-23T05:38:55.137Z,78.57
2023-01-23T05:39:57.649Z,78.58
2023-01-23T05:40:59.200Z,78.44
2023-01-23T05:42:01.881Z,78.42
2023-01-23T05:43:03.457Z,78.58
2023-01-23T05:44:06.223Z,78.69
2023-01-23T05:45:08.098Z,78.73
2023-01-23T05:46:10.624Z,78.61
2023-01-23T05:47:12.196Z,78.76
2023-01-23T05:48:15.010Z,78.63
2023-01-23T05:49:18.854Z,78.73
2023-01-23T05:50:23.644Z,78.73
2023-01-23T05:51:31.499Z,78.40
2023-01-23T05:52:33.111Z,78.54
2023-01-23T05:53:35.587Z,78.53
2023-01-23T05:54:37.109Z,78.60
2023-01-23T05:55:39.941Z,78.87
2023-01-23T05:56:42.533Z,78.54
2023-01-23T05:57:44.049Z,78.60
2023-01-23T05:58:46.536Z,78.34
2023-01-23T05:59:48.264Z,78.54
2023-01-23T06:00:50.969Z,78.45
2023-01-23T06:01:52.969Z,78.44
2023-01-23T06:02:56.691Z,78.45
2023-01-23T06:03:58.284Z,78.73
2023-01-23T06:05:02.160Z,78.41
2023-01-23T06:06:03.904Z,78.71
2023-01-23T06:07:06.484Z,78.55
2023-01-23T06:08:08.106Z,78.51
2023-01-23T06:09:10.649Z,78.60
2023-01-23T06:10:12.178Z,78.64
2023-01-23T06:11:14.987Z,78.51
2023-01-23T06:12:16.532Z,78.49
2023-01-23T06:13:19.061Z,78.61
2023-01-23T06:14:20.973Z,78.75
2023-01-23T06:15:23.535Z,78.76
2023-01-23T06:16:25.493Z,78.71
2023-01-23T06:17:27.987Z,78.67
2023-01-23T06:18:29.894Z,78.82
2023-01-23T06:19:32.548Z,78.78
2023-01-23T06:20:35.555Z,78.83
2023-01-23T06:21:38.047Z,78.98
2023-01-23T06:22:39.797Z,78.97
2023-01-23T06:23:42.302Z,79.11
2023-01-23T06:24:43.829Z,78.95
2023-01-23T06:25:46.329Z,78.99
2023-01-23T06:26:48.882Z,78.93
2023-01-23T06:27:50.408Z,79.08
2023-01-23T06:28:53.006Z,79.17
2023-01-23T06:29:55.498Z,79.03
2023-01-23T06:31:00.845Z,78.99
2023-01-23T06:32:03.982Z,78.93
2023-01-23T06:33:05.541Z,78.93
2023-01-23T06:34:08.495Z,79.03
2023-01-23T06:35:10.394Z,78.80
2023-01-23T06:36:16.892Z,78.91
2023-01-23T06:37:18.647Z,78.84
2023-01-23T06:38:21.230Z,79.02
2023-01-23T06:39:24.018Z,79.01
2023-01-23T06:40:25.663Z,79.03
2023-01-23T06:41:28.218Z,79.13
2023-01-23T06:42:29.765Z,78.94
2023-01-23T06:43:32.364Z,79.11
2023-01-23T06:44:33.937Z,79.02
2023-01-23T06:45:36.469Z,79.16
2023-01-23T06:46:39.563Z,79.09
2023-01-23T06:47:41.109Z,78.95
2023-01-23T06:48:43.602Z,78.96
2023-01-23T06:49:45.149Z,78.93
2023-01-23T06:50:47.732Z,79.09
2023-01-23T06:51:50.634Z,78.91
2023-01-23T06:52:53.189Z,79.05
2023-01-23T06:53:56.167Z,78.99
2023-01-23T06:54:58.677Z,79.07
2023-01-23T06:56:01.197Z,79.04
2023-01-23T06:57:04.574Z,79.02
2023-01-23T06:58:06.414Z,78.98
2023-01-23T06:59:09.396Z,78.80
2023-01-23T07:00:12.199Z,79.03
2023-01-23T07:01:19.569Z,79.00
2023-01-23T07:02:21.171Z,78.85
2023-01-23T07:03:23.682Z,79.04
2023-01-23T07:04:26.232Z,78.86
2023-01-23T07:05:28.025Z,78.98
2023-01-23T07:06:31.675Z,78.81
2023-01-23T07:07:34.777Z,78.92
2023-01-23T07:08:37.800Z,78.90
2023-01-23T07:09:39.331Z,78.81
2023-01-23T07:10:42.312Z,78.87
2023-01-23T07:11:45.442Z,78.83
2023-01-23T07:12:47.962Z,78.91
2023-01-23T07:13:49.464Z,78.96
2023-01-23T07:14:51.942Z,78.98
2023-01-23T07:15:54.521Z,79.03
2023-01-23T07:16:57.231Z,78.99
2023-01-23T07:17:59.757Z,79.01
2023-01-23T07:19:02.421Z,79.02
2023-01-23T07:20:05.531Z,79.06
2023-01-23T07:21:09.231Z,78.97
2023-01-23T07:22:10.794Z,78.91
2023-01-23T07:23:14.668Z,79.01
2023-01-23T07:24:16.191Z,79.02
2023-01-23T07:25:18.753Z,79.06
2023-01-23T07:26:20.370Z,79.00
2023-01-23T07:27:22.954Z,78.88
2023-01-23T07:28:24.461Z,78.83
2023-01-23T07:29:27.069Z,78.91
2023-01-23T07:30:29.352Z,79.07
2023-01-23T07:31:32.138Z,79.02
2023-01-23T07:32:33.723Z,79.02
2023-01-23T07:33:36.377Z,79.00
2023-01-23T07:34:37.975Z,78.86
2023-01-23T07:35:41.137Z,78.85
2023-01-23T07:36:42.765Z,78.93
2023-01-23T07:37:45.254Z,78.90
2023-01-23T07:38:48.209Z,78.99
2023-01-23T07:39:50.748Z,79.01
2023-01-23T07:40:52.784Z,78.85
2023-01-23T07:41:55.334Z,79.10
2023-01-23T07:42:56.987Z,78.97
2023-01-23T07:43:59.478Z,79.06
2023-01-23T07:45:01.046Z,78.80
2023-01-23T07:46:03.653Z,78.92
2023-01-23T07:47:05.264Z,79.07
2023-01-23T07:48:08.349Z,78.85
2023-01-23T07:49:10.991Z,79.06
2023-01-23T07:50:14.653Z,79.43
2023-01-23T07:51:17.222Z,78.67
2023-01-23T07:52:19.214Z,78.94
2023-01-23T07:53:21.758Z,79.01
2023-01-23T07:54:25.735Z,78.90
2023-01-23T07:55:27.265Z,78.71
2023-01-23T07:56:29.809Z,78.91
2023-01-23T07:57:33.837Z,78.81
2023-01-23T07:58:37.105Z,78.86
2023-01-23T07:59:38.665Z,78.99
2023-01-23T08:00:42.457Z,78.76
2023-01-23T08:01:44.276Z,78.90
2023-01-23T08:02:46.902Z,78.82
2023-01-23T08:03:49.445Z,78.81
2023-01-23T08:04:52.087Z,78.83
2023-01-23T08:05:54.610Z,78.68
2023-01-23T08:06:57.199Z,78.87
2023-01-23T08:08:12.042Z,78.69
2023-01-23T08:09:15.866Z,78.77
2023-01-23T08:10:19.326Z,78.64
2023-01-23T08:11:23.873Z,78.70
2023-01-23T08:12:25.422Z,78.81
2023-01-23T08:13:27.899Z,78.69
2023-01-23T08:14:30.455Z,78.82
2023-01-23T08:15:32.974Z,78.56
2023-01-23T08:16:35.608Z,78.81
2023-01-23T08:17:38.293Z,78.75
2023-01-23T08:18:39.828Z,78.74
2023-01-23T08:19:42.356Z,78.82
2023-01-23T08:20:43.974Z,78.99
2023-01-23T08:21:46.890Z,78.81
2023-01-23T08:22:49.680Z,78.78
2023-01-23T08:23:51.232Z,78.89
2023-01-23T08:24:53.740Z,78.80
2023-01-23T08:25:59.153Z,78.82
2023-01-23T08:27:00.732Z,78.67
2023-01-23T08:28:03.193Z,78.73
2023-01-23T08:29:05.738Z,78.76
2023-01-23T08:30:09.400Z,78.71
2023-01-23T08:31:13.370Z,78.68
2023-01-23T08:32:16.433Z,78.76
2023-01-23T08:33:19.511Z,78.79
2023-01-23T08:34:22.040Z,78.75
2023-01-23T08:35:24.919Z,78.62
2023-01-23T08:36:27.487Z,78.81
2023-01-23T08:37:30.051Z,78.52
2023-01-23T08:38:32.373Z,78.62
2023-01-23T08:39:35.637Z,78.74
2023-01-23T08:40:37.229Z,78.54
2023-01-23T08:41:41.035Z,78.69
2023-01-23T08:42:42.578Z,78.74
2023-01-23T08:43:45.094Z,78.56
2023-01-23T08:44:46.612Z,78.58
2023-01-23T08:45:51.401Z,78.51
2023-01-23T08:46:53.924Z,78.68
2023-01-23T08:47:57.582Z,78.45
2023-01-23T08:49:00.055Z,78.59
2023-01-23T08:50:03.755Z,78.40
2023-01-23T08:51:25.536Z,78.69
2023-01-23T08:52:28.658Z,78.67
2023-01-23T08:53:31.996Z,78.45
2023-01-23T08:54:34.488Z,78.55
2023-01-23T08:55:38.756Z,78.56
2023-01-23T08:56:42.795Z,78.51
2023-01-23T08:57:44.391Z,78.68
2023-01-23T08:58:47.903Z,78.32
2023-01-23T08:59:50.688Z,78.63
2023-01-23T09:00:52.409Z,78.47
2023-01-23T09:01:55.023Z,78.54
2023-01-23T09:03:00.215Z,78.30
2023-01-23T09:04:02.745Z,78.31
2023-01-23T09:05:04.925Z,78.42
2023-01-23T09:06:07.946Z,78.45
2023-01-23T09:07:09.582Z,78.34
2023-01-23T09:08:12.134Z,78.33
2023-01-23T09:09:14.677Z,78.43
2023-01-23T09:10:17.299Z,78.02
2023-01-23T09:11:18.999Z,78.19
2023-01-23T09:12:22.914Z,78.12
2023-01-23T09:13:24.444Z,78.27
2023-01-23T09:14:26.942Z,78.12
2023-01-23T09:15:29.760Z,78.41
2023-01-23T09:16:32.281Z,77.94
2023-01-23T09:17:34.824Z,78.24
2023-01-23T09:18:38.237Z,78.13
2023-01-23T09:19:40.761Z,77.83
2023-01-23T09:20:42.278Z,78.04
2023-01-23T09:21:44.835Z,78.16
2023-01-23T09:22:46.474Z,78.12
2023-01-23T09:23:48.985Z,78.09
2023-01-23T09:24:50.492Z,77.79
2023-01-23T09:25:53.186Z,78.09
2023-01-23T09:26:55.694Z,77.95
2023-01-23T09:27:59.576Z,77.81
2023-01-23T09:29:02.538Z,77.94
2023-01-23T09:30:04.636Z,77.67
2023-01-23T09:31:08.984Z,77.78
2023-01-23T09:32:11.655Z,77.34
2023-01-23T09:33:14.501Z,77.19
2023-01-23T09:34:17.453Z,77.30
2023-01-23T09:35:20.006Z,77.26
2023-01-23T09:36:37.519Z,77.39
2023-01-23T09:38:04.570Z,77.18
2023-01-23T09:39:07.089Z,77.30
2023-01-23T09:40:16.450Z,77.31
2023-01-23T09:41:22.118Z,77.48
2023-01-23T09:42:29.006Z,77.19
2023-01-23T09:43:42.132Z,77.43
2023-01-23T09:44:48.563Z,77.08
2023-01-23T09:46:01.336Z,76.97
2023-01-23T09:47:08.833Z,77.15
2023-01-23T09:50:14.876Z,76.95
2023-01-23T09:51:24.511Z,76.90
2023-01-23T09:52:29.709Z,76.71
2023-01-23T09:53:36.410Z,76.31
2023-01-23T09:54:44.350Z,76.67
2023-01-23T09:55:50.929Z,76.16
2023-01-23T09:56:55.290Z,76.26
2023-01-23T09:57:59.862Z,76.06
2023-01-23T09:59:14.395Z,76.20
2023-01-23T10:00:23.588Z,75.84
2023-01-23T10:01:28.085Z,76.14
2023-01-23T10:02:31.040Z,75.98
2023-01-23T10:03:33.911Z,75.64
2023-01-23T10:04:36.204Z,76.03
2023-01-23T10:05:47.387Z,75.82
2023-01-23T10:07:10.192Z,75.86
2023-01-23T10:08:23.274Z,75.51
2023-01-23T10:09:41.246Z,75.59
2023-01-23T10:10:55.027Z,75.33
2023-01-23T10:12:04.511Z,75.22
2023-01-23T10:13:16.512Z,75.28
2023-01-23T10:14:40.318Z,75.19
2023-01-23T10:16:01.834Z,75.11
2023-01-23T10:17:14.073Z,75.28
2023-01-23T10:18:22.646Z,74.78
2023-01-23T10:19:41.646Z,74.90
2023-01-23T10:20:52.215Z,75.16
2023-01-23T10:22:02.580Z,74.94
2023-01-23T10:23:14.090Z,74.76
2023-01-23T10:24:40.076Z,74.76
2023-01-23T10:25:43.857Z,74.70
2023-01-23T10:26:47.975Z,74.58
2023-01-23T10:27:52.503Z,74.50
2023-01-23T10:29:00.956Z,74.40
2023-01-23T10:30:14.505Z,74.35
2023-01-23T10:31:29.412Z,74.36
2023-01-23T10:32:38.386Z,74.30
2023-01-23T10:33:49.540Z,74.26
2023-01-23T10:34:57.971Z,74.07
2023-01-23T10:36:06.959Z,74.18
2023-01-23T10:37:18.661Z,74.12
2023-01-23T10:38:28.056Z,74.00
2023-01-23T10:39:40.458Z,73.85
2023-01-23T10:41:00.398Z,73.85
2023-01-23T10:42:03.211Z,73.96
2023-01-23T10:43:12.506Z,73.72
2023-01-23T10:44:17.350Z,73.62
2023-01-23T10:45:23.633Z,73.71
2023-01-23T10:46:32.072Z,73.58
2023-01-23T10:47:38.707Z,73.46
2023-01-23T10:48:44.363Z,73.53
2023-01-23T10:49:47.879Z,73.34
2023-01-23T10:50:49.426Z,73.13
2023-01-23T10:51:51.991Z,73.08
2023-01-23T10:53:07.848Z,73.11
2023-01-23T10:54:29.895Z,73.11
2023-01-23T10:55:33.622Z,73.33
2023-01-23T10:56:38.952Z,73.27
2023-01-23T10:57:48.842Z,73.17
2023-01-23T10:58:54.971Z,73.06
2023-01-23T11:00:01.415Z,73.22
2023-01-23T11:01:26.966Z,73.23
2023-01-23T11:02:31.359Z,73.33
2023-01-23T11:03:34.915Z,73.12
2023-01-23T11:04:37.692Z,72.83
2023-01-23T11:05:52.159Z,73.01
2023-01-23T11:07:07.200Z,72.70
2023-01-23T11:08:23.990Z,72.89
2023-01-23T11:09:25.572Z,72.71
2023-01-23T11:10:29.431Z,72.65
2023-01-23T11:11:32.612Z,72.58
2023-01-23T11:12:47.087Z,72.61
2023-01-23T11:13:51.084Z,72.52
2023-01-23T11:15:13.087Z,72.82
2023-01-23T11:16:17.155Z,72.63
2023-01-23T11:17:26.327Z,72.44
2023-01-23T11:18:35.862Z,72.43
2023-01-23T11:19:38.515Z,72.58
2023-01-23T11:20:43.461Z,72.28
2023-01-23T11:21:54.034Z,72.21
2023-01-23T11:23:15.520Z,72.22
2023-01-23T11:24:27.825Z,72.34
2023-01-23T11:25:38.902Z,72.31
2023-01-23T11:26:41.411Z,72.29
2023-01-23T11:27:58.553Z,71.92
2023-01-23T11:29:01.104Z,71.90
2023-01-23T11:30:39.207Z,71.97
2023-01-23T11:31:42.964Z,71.85
2023-01-23T11:32:56.050Z,72.20
2023-01-23T11:34:04.922Z,71.73
2023-01-23T11:35:18.970Z,71.85
2023-01-23T11:36:44.011Z,72.29
2023-01-23T11:37:46.944Z,71.69
2023-01-23T11:38:54.669Z,71.79
2023-01-23T11:40:03.135Z,71.88
2023-01-23T11:41:05.408Z,71.94
2023-01-23T11:42:11.593Z,71.73
2023-01-23T11:43:14.661Z,71.58
2023-01-23T11:44:21.120Z,71.66
2023-01-23T11:45:41.093Z,71.56
2023-01-23T11:47:01.429Z,71.38
2023-01-23T11:48:22.019Z,71.65
2023-01-23T11:49:49.311Z,71.45
2023-01-23T11:51:01.127Z,71.59
2023-01-23T11:52:18.905Z,71.25
2023-01-23T11:53:41.113Z,71.15
2023-01-23T11:55:04.552Z,71.58
2023-01-23T11:56:23.106Z,70.95
2023-01-23T11:57:37.430Z,71.07
2023-01-23T11:59:05.421Z,71.31
2023-01-23T12:00:22.170Z,70.96
2023-01-23T12:01:32.305Z,71.18
2023-01-23T12:03:08.469Z,70.77
2023-01-23T12:04:44.895Z,70.81
2023-01-23T12:07:51.275Z,70.58
2023-01-23T12:09:05.544Z,70.87
2023-01-23T12:10:24.262Z,70.64
2023-01-23T12:11:36.743Z,70.78
2023-01-23T12:12:59.387Z,70.69
2023-01-23T12:14:10.721Z,70.67
2023-01-23T12:15:19.416Z,70.64
2023-01-23T12:16:28.347Z,70.76
2023-01-23T12:17:41.802Z,70.48
2023-01-23T12:18:50.951Z,70.35
2023-01-23T12:20:27.079Z,70.54
2023-01-23T12:21:39.300Z,70.15
2023-01-23T12:22:56.833Z,70.45
2023-01-23T12:24:13.465Z,70.30
2023-01-23T12:25:28.966Z,70.15
2023-01-23T12:26:33.073Z,70.31
2023-01-23T12:27:41.894Z,70.29
2023-01-23T12:29:11.491Z,70.39
2023-01-23T12:30:29.927Z,69.95
2023-01-23T12:31:45.779Z,69.84
2023-01-23T12:32:57.284Z,69.72
2023-01-23T12:34:23.484Z,69.91
2023-01-23T12:35:34.467Z,69.96
2023-01-23T12:37:08.127Z,69.87
2023-01-23T12:38:27.324Z,69.96
2023-01-23T12:39:49.096Z,69.47
2023-01-23T12:40:54.881Z,69.65
2023-01-23T12:42:03.922Z,69.75
2023-01-23T12:43:13.971Z,69.44
2023-01-23T12:44:19.571Z,69.10
2023-01-23T12:45:23.237Z,68.99
2023-01-23T12:46:31.964Z,69.10
2023-01-23T12:47:38.411Z,69.11
2023-01-23T12:48:47.611Z,68.54
2023-01-23T12:49:54.351Z,68.73
2023-01-23T12:51:02.146Z,68.79
2023-01-23T12:52:12.277Z,68.56
2023-01-23T12:53:15.669Z,68.73
2023-01-23T12:54:25.996Z,68.17
2023-01-23T12:55:34.115Z,68.16
2023-01-23T12:56:41.755Z,68.42
2023-01-23T12:57:59.854Z,68.14
2023-01-23T12:59:14.034Z,67.71
2023-01-23T13:00:31.604Z,67.60
2023-01-23T13:01:47.425Z,67.63
2023-01-23T13:02:59.304Z,67.83
2023-01-23T13:04:16.615Z,67.67
2023-01-23T13:05:24.380Z,67.85
2023-01-23T13:06:47.262Z,67.36
2023-01-23T13:07:59.793Z,67.70
2023-01-23T13:09:17.698Z,67.38
2023-01-23T13:10:57.757Z,67.51
2023-01-23T13:12:11.409Z,66.86
2023-01-23T13:13:13.411Z,67.24
2023-01-23T13:14:19.820Z,67.20
2023-01-23T13:15:40.042Z,67.15
2023-01-23T13:16:47.335Z,66.65
2023-01-23T13:17:50.871Z,66.65
2023-01-23T13:19:13.220Z,66.96
2023-01-23T13:20:56.563Z,66.54
2023-01-23T13:22:18.890Z,66.66
2023-01-23T13:23:31.175Z,66.63
2023-01-23T13:25:05.248Z,66.44
2023-01-23T13:26:31.752Z,66.22
2023-01-23T13:27:48.440Z,66.44
2023-01-23T13:28:53.820Z,66.26
2023-01-23T13:29:58.695Z,65.95
2023-01-23T13:31:02.862Z,66.08
2023-01-23T13:32:22.765Z,65.92
2023-01-23T13:33:58.928Z,66.07
2023-01-23T13:35:46.354Z,65.96
2023-01-23T13:36:50.047Z,65.66
2023-01-23T13:37:51.735Z,66.06
2023-01-23T13:39:28.642Z,66.02
2023-01-23T13:40:31.168Z,65.88
2023-01-23T13:41:33.742Z,66.01
2023-01-23T13:42:37.768Z,65.70
2023-01-23T13:43:44.101Z,65.75
2023-01-23T13:45:27.068Z,65.65
2023-01-23T14:28:40.578Z,66.45
2023-01-23T14:29:43.056Z,66.27
2023-01-23T14:30:54.719Z,66.17
2023-01-23T14:31:57.307Z,66.10
2023-01-23T14:32:59.181Z,66.37
2023-01-23T14:34:09.882Z,66.33
2023-01-23T14:35:17.929Z,66.41
2023-01-23T14:36:20.765Z,66.36
2023-01-23T14:37:22.914Z,66.18
2023-01-23T14:38:30.210Z,66.17
2023-01-23T14:39:35.880Z,66.39
2023-01-23T14:40:50.228Z,66.31
2023-01-23T14:41:56.255Z,66.42
2023-01-23T14:42:59.775Z,66.25
2023-01-23T14:44:04.519Z,66.46
2023-01-23T14:45:09.968Z,66.42
2023-01-23T14:46:17.803Z,66.33
2023-01-23T14:47:28.228Z,66.43
2023-01-23T14:48:36.642Z,66.55
2023-01-23T14:49:39.293Z,66.60
2023-01-23T14:50:41.554Z,66.74
2023-01-23T14:51:56.343Z,66.41
2023-01-23T14:53:00.092Z,66.38
2023-01-23T14:54:10.236Z,66.42